sensor_id;sensor_type;location;lat;lon;timestamp;P1;durP1;ratioP1;P2;durP2;ratioP2
38182;SDS011;23991;52.430;10.586;2023-03-29T00:01:01;6.80;;;2.00;;
38182;SDS011;23991;52.430;10.586;2023-03-29T00:03:27;8.90;;;2.58;;
38182;SDS011;23991;52.430;10.586;2023-03-29T00:05:57;5.43;;;2.30;;
38182;SDS011;23991;52.430;10.586;2023-03-29T00:08:26;4.20;;;2.17;;
38182;SDS011;23991;52.430;10.586;2023-03-29T00:10:53;7.78;;;2.22;;
38182;SDS011;23991;52.430;10.586;2023-03-29T00:13:20;6.30;;;2.10;;
38182;SDS011;23991;52.430;10.586;2023-03-29T00:15:46;8.57;;;2.53;;
38182;SDS011;23991;52.430;10.586;2023-03-29T00:18:12;5.47;;;2.22;;
38182;SDS011;23991;52.430;10.586;2023-03-29T00:20:37;5.63;;;2.10;;
38182;SDS011;23991;52.430;10.586;2023-03-29T00:23:03;6.43;;;2.38;;
38182;SDS011;23991;52.430;10.586;2023-03-29T00:25:29;5.85;;;2.10;;
38182;SDS011;23991;52.430;10.586;2023-03-29T00:27:54;7.95;;;2.55;;
38182;SDS011;23991;52.430;10.586;2023-03-29T00:30:20;4.60;;;2.50;;
38182;SDS011;23991;52.430;10.586;2023-03-29T00:32:45;9.05;;;2.63;;
38182;SDS011;23991;52.430;10.586;2023-03-29T00:35:11;6.65;;;2.45;;
38182;SDS011;23991;52.430;10.586;2023-03-29T00:37:37;7.65;;;2.92;;
38182;SDS011;23991;52.430;10.586;2023-03-29T00:40:04;5.72;;;2.10;;
38182;SDS011;23991;52.430;10.586;2023-03-29T00:42:36;5.35;;;3.03;;
38182;SDS011;23991;52.430;10.586;2023-03-29T00:45:09;7.68;;;2.25;;
38182;SDS011;23991;52.430;10.586;2023-03-29T00:50:23;6.28;;;2.10;;
38182;SDS011;23991;52.430;10.586;2023-03-29T00:55:28;7.55;;;2.58;;
38182;SDS011;23991;52.430;10.586;2023-03-29T00:57:58;6.13;;;2.30;;
38182;SDS011;23991;52.430;10.586;2023-03-29T01:00:27;6.60;;;2.25;;
38182;SDS011;23991;52.430;10.586;2023-03-29T01:02:57;5.68;;;2.17;;
38182;SDS011;23991;52.430;10.586;2023-03-29T01:05:44;5.32;;;2.38;;
38182;SDS011;23991;52.430;10.586;2023-03-29T01:08:17;5.18;;;2.08;;
38182;SDS011;23991;52.430;10.586;2023-03-29T01:10:57;9.05;;;2.60;;
38182;SDS011;23991;52.430;10.586;2023-03-29T01:13:34;5.22;;;2.00;;
38182;SDS011;23991;52.430;10.586;2023-03-29T01:16:05;5.20;;;2.13;;
38182;SDS011;23991;52.430;10.586;2023-03-29T01:18:32;6.22;;;2.33;;
38182;SDS011;23991;52.430;10.586;2023-03-29T01:21:03;5.05;;;1.92;;
38182;SDS011;23991;52.430;10.586;2023-03-29T01:29:28;8.15;;;2.40;;
38182;SDS011;23991;52.430;10.586;2023-03-29T01:34:37;5.35;;;2.10;;
38182;SDS011;23991;52.430;10.586;2023-03-29T01:37:15;5.28;;;2.10;;
38182;SDS011;23991;52.430;10.586;2023-03-29T01:39:48;7.38;;;2.67;;
38182;SDS011;23991;52.430;10.586;2023-03-29T01:42:21;6.03;;;2.30;;
38182;SDS011;23991;52.430;10.586;2023-03-29T01:50:43;6.55;;;2.30;;
38182;SDS011;23991;52.430;10.586;2023-03-29T01:55:55;5.97;;;2.40;;
38182;SDS011;23991;52.430;10.586;2023-03-29T01:58:30;8.85;;;2.65;;
38182;SDS011;23991;52.430;10.586;2023-03-29T02:00:58;8.02;;;2.20;;
38182;SDS011;23991;52.430;10.586;2023-03-29T02:03:29;5.22;;;2.47;;
38182;SDS011;23991;52.430;10.586;2023-03-29T02:05:57;7.90;;;2.33;;
38182;SDS011;23991;52.430;10.586;2023-03-29T02:08:24;6.28;;;2.33;;
38182;SDS011;23991;52.430;10.586;2023-03-29T02:10:52;5.78;;;2.20;;
38182;SDS011;23991;52.430;10.586;2023-03-29T02:13:18;6.32;;;2.50;;
38182;SDS011;23991;52.430;10.586;2023-03-29T02:15:45;5.30;;;2.60;;
38182;SDS011;23991;52.430;10.586;2023-03-29T02:18:12;8.80;;;2.13;;
38182;SDS011;23991;52.430;10.586;2023-03-29T02:25:51;8.70;;;2.40;;
38182;SDS011;23991;52.430;10.586;2023-03-29T02:28:19;6.15;;;3.28;;
38182;SDS011;23991;52.430;10.586;2023-03-29T02:33:37;9.13;;;2.45;;
38182;SDS011;23991;52.430;10.586;2023-03-29T02:38:39;6.83;;;2.30;;
38182;SDS011;23991;52.430;10.586;2023-03-29T02:41:05;9.48;;;2.15;;
38182;SDS011;23991;52.430;10.586;2023-03-29T02:43:32;4.75;;;2.08;;
38182;SDS011;23991;52.430;10.586;2023-03-29T02:45:59;6.75;;;2.25;;
38182;SDS011;23991;52.430;10.586;2023-03-29T02:48:26;4.28;;;2.28;;
38182;SDS011;23991;52.430;10.586;2023-03-29T02:50:57;4.53;;;1.83;;
38182;SDS011;23991;52.430;10.586;2023-03-29T02:53:37;8.05;;;2.30;;
38182;SDS011;23991;52.430;10.586;2023-03-29T02:56:06;4.65;;;1.85;;
38182;SDS011;23991;52.430;10.586;2023-03-29T02:58:33;5.82;;;1.90;;
38182;SDS011;23991;52.430;10.586;2023-03-29T03:01:00;5.07;;;2.10;;
38182;SDS011;23991;52.430;10.586;2023-03-29T03:03:29;7.28;;;2.50;;
38182;SDS011;23991;52.430;10.586;2023-03-29T03:05:55;4.15;;;2.10;;
38182;SDS011;23991;52.430;10.586;2023-03-29T03:08:21;3.80;;;2.10;;
38182;SDS011;23991;52.430;10.586;2023-03-29T03:10:47;6.07;;;1.92;;
38182;SDS011;23991;52.430;10.586;2023-03-29T03:13:13;6.80;;;2.10;;
38182;SDS011;23991;52.430;10.586;2023-03-29T03:15:38;5.78;;;2.03;;
38182;SDS011;23991;52.430;10.586;2023-03-29T03:18:06;6.72;;;2.47;;
38182;SDS011;23991;52.430;10.586;2023-03-29T03:20:33;6.47;;;2.20;;
38182;SDS011;23991;52.430;10.586;2023-03-29T03:22:59;6.68;;;2.17;;
38182;SDS011;23991;52.430;10.586;2023-03-29T03:25:27;7.38;;;2.47;;
38182;SDS011;23991;52.430;10.586;2023-03-29T03:27:53;4.82;;;2.00;;
38182;SDS011;23991;52.430;10.586;2023-03-29T03:30:19;5.82;;;2.40;;
38182;SDS011;23991;52.430;10.586;2023-03-29T03:32:45;5.63;;;2.30;;
38182;SDS011;23991;52.430;10.586;2023-03-29T03:35:12;3.75;;;1.92;;
38182;SDS011;23991;52.430;10.586;2023-03-29T03:37:38;4.90;;;2.08;;
38182;SDS011;23991;52.430;10.586;2023-03-29T03:40:05;4.70;;;2.22;;
38182;SDS011;23991;52.430;10.586;2023-03-29T03:42:44;5.57;;;2.25;;
38182;SDS011;23991;52.430;10.586;2023-03-29T03:45:10;5.95;;;2.53;;
38182;SDS011;23991;52.430;10.586;2023-03-29T03:47:36;7.05;;;2.60;;
38182;SDS011;23991;52.430;10.586;2023-03-29T03:50:03;4.63;;;2.40;;
38182;SDS011;23991;52.430;10.586;2023-03-29T03:52:30;5.10;;;2.60;;
38182;SDS011;23991;52.430;10.586;2023-03-29T03:54:55;5.57;;;2.53;;
38182;SDS011;23991;52.430;10.586;2023-03-29T03:57:21;8.48;;;2.80;;
38182;SDS011;23991;52.430;10.586;2023-03-29T03:59:47;5.30;;;2.42;;
38182;SDS011;23991;52.430;10.586;2023-03-29T04:02:13;5.72;;;2.78;;
38182;SDS011;23991;52.430;10.586;2023-03-29T04:04:39;3.97;;;2.42;;
38182;SDS011;23991;52.430;10.586;2023-03-29T04:07:05;8.75;;;3.00;;
38182;SDS011;23991;52.430;10.586;2023-03-29T04:09:31;4.15;;;2.15;;
38182;SDS011;23991;52.430;10.586;2023-03-29T04:11:58;9.98;;;3.20;;
38182;SDS011;23991;52.430;10.586;2023-03-29T04:14:25;5.63;;;2.47;;
38182;SDS011;23991;52.430;10.586;2023-03-29T04:16:52;7.90;;;2.97;;
38182;SDS011;23991;52.430;10.586;2023-03-29T04:19:18;6.13;;;2.83;;
38182;SDS011;23991;52.430;10.586;2023-03-29T04:21:44;4.10;;;2.30;;
38182;SDS011;23991;52.430;10.586;2023-03-29T04:24:11;4.78;;;2.60;;
38182;SDS011;23991;52.430;10.586;2023-03-29T04:26:37;5.20;;;3.05;;
38182;SDS011;23991;52.430;10.586;2023-03-29T04:29:03;7.55;;;2.53;;
38182;SDS011;23991;52.430;10.586;2023-03-29T04:31:29;5.97;;;3.00;;
38182;SDS011;23991;52.430;10.586;2023-03-29T04:33:56;11.23;;;2.95;;
38182;SDS011;23991;52.430;10.586;2023-03-29T04:36:22;5.05;;;2.50;;
38182;SDS011;23991;52.430;10.586;2023-03-29T04:38:48;6.82;;;2.95;;
38182;SDS011;23991;52.430;10.586;2023-03-29T04:41:16;7.47;;;2.47;;
38182;SDS011;23991;52.430;10.586;2023-03-29T04:43:43;7.00;;;2.72;;
38182;SDS011;23991;52.430;10.586;2023-03-29T04:46:12;7.78;;;2.90;;
38182;SDS011;23991;52.430;10.586;2023-03-29T04:48:38;6.18;;;2.92;;
38182;SDS011;23991;52.430;10.586;2023-03-29T04:51:04;6.05;;;3.20;;
38182;SDS011;23991;52.430;10.586;2023-03-29T04:53:30;7.15;;;3.10;;
38182;SDS011;23991;52.430;10.586;2023-03-29T04:55:56;6.85;;;4.07;;
38182;SDS011;23991;52.430;10.586;2023-03-29T04:58:23;10.00;;;3.42;;
38182;SDS011;23991;52.430;10.586;2023-03-29T05:00:55;4.40;;;2.93;;
38182;SDS011;23991;52.430;10.586;2023-03-29T05:03:22;6.00;;;3.20;;
38182;SDS011;23991;52.430;10.586;2023-03-29T05:05:48;8.63;;;3.92;;
38182;SDS011;23991;52.430;10.586;2023-03-29T05:08:14;5.25;;;3.50;;
38182;SDS011;23991;52.430;10.586;2023-03-29T05:10:41;11.13;;;4.15;;
38182;SDS011;23991;52.430;10.586;2023-03-29T05:13:07;8.73;;;3.80;;
38182;SDS011;23991;52.430;10.586;2023-03-29T05:15:38;8.05;;;4.35;;
38182;SDS011;23991;52.430;10.586;2023-03-29T05:18:03;9.00;;;4.25;;
38182;SDS011;23991;52.430;10.586;2023-03-29T05:20:29;7.10;;;4.35;;
38182;SDS011;23991;52.430;10.586;2023-03-29T05:22:55;5.05;;;3.47;;
38182;SDS011;23991;52.430;10.586;2023-03-29T05:25:21;10.48;;;4.45;;
38182;SDS011;23991;52.430;10.586;2023-03-29T05:27:47;7.43;;;4.25;;
38182;SDS011;23991;52.430;10.586;2023-03-29T05:30:14;8.73;;;4.43;;
38182;SDS011;23991;52.430;10.586;2023-03-29T05:32:40;7.72;;;4.32;;
38182;SDS011;23991;52.430;10.586;2023-03-29T05:35:06;8.23;;;4.35;;
38182;SDS011;23991;52.430;10.586;2023-03-29T05:37:33;8.55;;;4.82;;
38182;SDS011;23991;52.430;10.586;2023-03-29T05:39:59;8.30;;;5.10;;
38182;SDS011;23991;52.430;10.586;2023-03-29T05:42:27;12.20;;;5.60;;
38182;SDS011;23991;52.430;10.586;2023-03-29T05:44:53;11.23;;;5.47;;
38182;SDS011;23991;52.430;10.586;2023-03-29T05:47:19;9.25;;;5.00;;
38182;SDS011;23991;52.430;10.586;2023-03-29T05:49:44;7.35;;;5.32;;
38182;SDS011;23991;52.430;10.586;2023-03-29T05:52:10;8.43;;;5.20;;
38182;SDS011;23991;52.430;10.586;2023-03-29T05:54:41;9.43;;;5.50;;
38182;SDS011;23991;52.430;10.586;2023-03-29T05:57:06;8.52;;;5.75;;
38182;SDS011;23991;52.430;10.586;2023-03-29T05:59:32;8.70;;;5.82;;
38182;SDS011;23991;52.430;10.586;2023-03-29T06:01:58;9.18;;;5.38;;
38182;SDS011;23991;52.430;10.586;2023-03-29T06:04:28;10.98;;;6.25;;
38182;SDS011;23991;52.430;10.586;2023-03-29T06:06:54;10.80;;;5.43;;
38182;SDS011;23991;52.430;10.586;2023-03-29T06:09:20;10.02;;;6.15;;
38182;SDS011;23991;52.430;10.586;2023-03-29T06:11:49;11.63;;;6.22;;
38182;SDS011;23991;52.430;10.586;2023-03-29T06:14:20;10.63;;;6.57;;
38182;SDS011;23991;52.430;10.586;2023-03-29T06:16:47;10.20;;;5.88;;
38182;SDS011;23991;52.430;10.586;2023-03-29T06:19:12;11.10;;;6.38;;
38182;SDS011;23991;52.430;10.586;2023-03-29T06:21:48;16.67;;;7.93;;
38182;SDS011;23991;52.430;10.586;2023-03-29T06:24:13;9.50;;;5.93;;
38182;SDS011;23991;52.430;10.586;2023-03-29T06:26:39;10.93;;;6.53;;
38182;SDS011;23991;52.430;10.586;2023-03-29T06:29:05;10.38;;;5.97;;
38182;SDS011;23991;52.430;10.586;2023-03-29T06:31:32;11.32;;;5.70;;
38182;SDS011;23991;52.430;10.586;2023-03-29T06:34:02;7.20;;;5.22;;
38182;SDS011;23991;52.430;10.586;2023-03-29T06:36:29;9.07;;;5.47;;
38182;SDS011;23991;52.430;10.586;2023-03-29T06:38:58;7.60;;;5.53;;
38182;SDS011;23991;52.430;10.586;2023-03-29T06:41:24;10.90;;;5.32;;
38182;SDS011;23991;52.430;10.586;2023-03-29T06:43:53;8.63;;;5.32;;
38182;SDS011;23991;52.430;10.586;2023-03-29T06:46:24;12.70;;;5.90;;
38182;SDS011;23991;52.430;10.586;2023-03-29T06:48:51;8.18;;;5.78;;
38182;SDS011;23991;52.430;10.586;2023-03-29T06:51:17;7.78;;;4.90;;
38182;SDS011;23991;52.430;10.586;2023-03-29T06:53:42;9.75;;;5.00;;
38182;SDS011;23991;52.430;10.586;2023-03-29T06:56:08;9.18;;;5.40;;
38182;SDS011;23991;52.430;10.586;2023-03-29T06:58:34;10.00;;;5.20;;
38182;SDS011;23991;52.430;10.586;2023-03-29T07:01:00;12.23;;;5.85;;
38182;SDS011;23991;52.430;10.586;2023-03-29T07:03:26;9.82;;;5.60;;
38182;SDS011;23991;52.430;10.586;2023-03-29T07:05:52;8.63;;;5.15;;
38182;SDS011;23991;52.430;10.586;2023-03-29T07:08:25;8.85;;;5.70;;
38182;SDS011;23991;52.430;10.586;2023-03-29T07:10:55;12.27;;;5.22;;
38182;SDS011;23991;52.430;10.586;2023-03-29T07:13:22;6.40;;;4.30;;
38182;SDS011;23991;52.430;10.586;2023-03-29T07:15:50;12.48;;;5.57;;
38182;SDS011;23991;52.430;10.586;2023-03-29T07:18:16;8.27;;;4.70;;
38182;SDS011;23991;52.430;10.586;2023-03-29T07:20:42;10.35;;;5.13;;
38182;SDS011;23991;52.430;10.586;2023-03-29T07:23:15;9.40;;;4.70;;
38182;SDS011;23991;52.430;10.586;2023-03-29T07:25:42;6.80;;;4.30;;
38182;SDS011;23991;52.430;10.586;2023-03-29T07:28:11;8.18;;;4.70;;
38182;SDS011;23991;52.430;10.586;2023-03-29T07:30:37;8.23;;;4.55;;
38182;SDS011;23991;52.430;10.586;2023-03-29T07:33:05;13.43;;;5.20;;
38182;SDS011;23991;52.430;10.586;2023-03-29T07:35:32;10.98;;;4.47;;
38182;SDS011;23991;52.430;10.586;2023-03-29T07:37:57;7.80;;;4.45;;
38182;SDS011;23991;52.430;10.586;2023-03-29T07:40:23;7.32;;;4.38;;
38182;SDS011;23991;52.430;10.586;2023-03-29T07:42:50;9.35;;;4.60;;
38182;SDS011;23991;52.430;10.586;2023-03-29T07:45:21;7.43;;;4.65;;
38182;SDS011;23991;52.430;10.586;2023-03-29T07:47:55;10.07;;;4.88;;
38182;SDS011;23991;52.430;10.586;2023-03-29T07:52:47;7.82;;;4.50;;
38182;SDS011;23991;52.430;10.586;2023-03-29T07:55:17;8.68;;;4.53;;
38182;SDS011;23991;52.430;10.586;2023-03-29T07:57:43;6.97;;;4.45;;
38182;SDS011;23991;52.430;10.586;2023-03-29T08:00:15;6.35;;;4.05;;
38182;SDS011;23991;52.430;10.586;2023-03-29T08:02:44;10.80;;;4.60;;
38182;SDS011;23991;52.430;10.586;2023-03-29T08:05:15;5.97;;;4.25;;
38182;SDS011;23991;52.430;10.586;2023-03-29T08:07:42;10.25;;;4.80;;
38182;SDS011;23991;52.430;10.586;2023-03-29T08:10:09;6.90;;;4.10;;
38182;SDS011;23991;52.430;10.586;2023-03-29T08:12:40;9.82;;;4.70;;
38182;SDS011;23991;52.430;10.586;2023-03-29T08:15:08;8.07;;;4.75;;
38182;SDS011;23991;52.430;10.586;2023-03-29T08:17:38;6.57;;;4.15;;
38182;SDS011;23991;52.430;10.586;2023-03-29T08:20:05;6.78;;;4.38;;
38182;SDS011;23991;52.430;10.586;2023-03-29T08:22:33;8.88;;;4.50;;
38182;SDS011;23991;52.430;10.586;2023-03-29T08:24:59;8.00;;;4.60;;
38182;SDS011;23991;52.430;10.586;2023-03-29T08:27:25;8.48;;;4.45;;
38182;SDS011;23991;52.430;10.586;2023-03-29T08:29:50;6.30;;;3.88;;
38182;SDS011;23991;52.430;10.586;2023-03-29T08:32:16;6.80;;;4.18;;
38182;SDS011;23991;52.430;10.586;2023-03-29T08:34:42;7.43;;;4.00;;
38182;SDS011;23991;52.430;10.586;2023-03-29T08:37:07;7.03;;;3.80;;
38182;SDS011;23991;52.430;10.586;2023-03-29T08:39:35;6.03;;;4.00;;
38182;SDS011;23991;52.430;10.586;2023-03-29T08:47:39;9.02;;;3.92;;
38182;SDS011;23991;52.430;10.586;2023-03-29T08:50:13;5.75;;;3.75;;
38182;SDS011;23991;52.430;10.586;2023-03-29T08:52:41;7.28;;;4.10;;
38182;SDS011;23991;52.430;10.586;2023-03-29T08:55:23;8.98;;;3.65;;
38182;SDS011;23991;52.430;10.586;2023-03-29T08:57:56;9.27;;;4.15;;
38182;SDS011;23991;52.430;10.586;2023-03-29T09:00:32;9.07;;;4.28;;
38182;SDS011;23991;52.430;10.586;2023-03-29T09:03:10;7.18;;;4.07;;
38182;SDS011;23991;52.430;10.586;2023-03-29T09:06:02;6.28;;;3.90;;
38182;SDS011;23991;52.430;10.586;2023-03-29T09:08:31;7.85;;;3.97;;
38182;SDS011;23991;52.430;10.586;2023-03-29T09:21:53;6.50;;;4.18;;
38182;SDS011;23991;52.430;10.586;2023-03-29T09:32:21;7.25;;;4.95;;
38182;SDS011;23991;52.430;10.586;2023-03-29T09:34:54;8.40;;;4.13;;
38182;SDS011;23991;52.430;10.586;2023-03-29T09:37:42;8.25;;;4.22;;
38182;SDS011;23991;52.430;10.586;2023-03-29T09:40:16;7.90;;;4.25;;
38182;SDS011;23991;52.430;10.586;2023-03-29T09:45:15;7.25;;;4.13;;
38182;SDS011;23991;52.430;10.586;2023-03-29T09:50:20;7.18;;;4.45;;
38182;SDS011;23991;52.430;10.586;2023-03-29T09:52:50;6.35;;;4.18;;
38182;SDS011;23991;52.430;10.586;2023-03-29T09:55:16;7.40;;;4.60;;
38182;SDS011;23991;52.430;10.586;2023-03-29T09:57:45;8.68;;;4.18;;
38182;SDS011;23991;52.430;10.586;2023-03-29T10:00:11;6.60;;;3.80;;
38182;SDS011;23991;52.430;10.586;2023-03-29T10:02:41;9.65;;;4.10;;
38182;SDS011;23991;52.430;10.586;2023-03-29T10:05:14;6.00;;;3.78;;
38182;SDS011;23991;52.430;10.586;2023-03-29T10:07:46;14.07;;;5.72;;
38182;SDS011;23991;52.430;10.586;2023-03-29T10:10:19;21.23;;;10.45;;
38182;SDS011;23991;52.430;10.586;2023-03-29T10:12:56;7.25;;;5.10;;
38182;SDS011;23991;52.430;10.586;2023-03-29T10:15:28;5.68;;;3.60;;
38182;SDS011;23991;52.430;10.586;2023-03-29T10:18:04;8.55;;;4.85;;
38182;SDS011;23991;52.430;10.586;2023-03-29T10:20:33;6.40;;;3.50;;
38182;SDS011;23991;52.430;10.586;2023-03-29T10:23:00;8.00;;;3.95;;
38182;SDS011;23991;52.430;10.586;2023-03-29T10:25:29;10.82;;;5.80;;
38182;SDS011;23991;52.430;10.586;2023-03-29T10:28:03;7.90;;;4.05;;
38182;SDS011;23991;52.430;10.586;2023-03-29T10:30:36;5.97;;;4.00;;
38182;SDS011;23991;52.430;10.586;2023-03-29T10:33:03;6.43;;;4.53;;
38182;SDS011;23991;52.430;10.586;2023-03-29T10:35:32;11.30;;;6.43;;
38182;SDS011;23991;52.430;10.586;2023-03-29T10:38:11;6.35;;;3.85;;
38182;SDS011;23991;52.430;10.586;2023-03-29T10:41:03;7.47;;;4.10;;
38182;SDS011;23991;52.430;10.586;2023-03-29T10:43:45;7.07;;;3.65;;
38182;SDS011;23991;52.430;10.586;2023-03-29T10:46:45;6.35;;;3.67;;
38182;SDS011;23991;52.430;10.586;2023-03-29T10:49:18;6.40;;;4.32;;
38182;SDS011;23991;52.430;10.586;2023-03-29T10:51:47;5.10;;;3.70;;
38182;SDS011;23991;52.430;10.586;2023-03-29T10:54:15;7.38;;;4.13;;
38182;SDS011;23991;52.430;10.586;2023-03-29T10:56:48;5.25;;;3.88;;
38182;SDS011;23991;52.430;10.586;2023-03-29T10:59:24;9.07;;;5.38;;
38182;SDS011;23991;52.430;10.586;2023-03-29T11:02:08;7.53;;;4.50;;
38182;SDS011;23991;52.430;10.586;2023-03-29T11:15:52;6.25;;;3.72;;
38182;SDS011;23991;52.430;10.586;2023-03-29T11:32:28;8.98;;;3.55;;
38182;SDS011;23991;52.430;10.586;2023-03-29T11:42:22;7.40;;;4.10;;
38182;SDS011;23991;52.430;10.586;2023-03-29T11:44:52;5.03;;;3.63;;
38182;SDS011;23991;52.430;10.586;2023-03-29T11:47:22;8.70;;;3.83;;
38182;SDS011;23991;52.430;10.586;2023-03-29T11:49:52;6.25;;;3.67;;
38182;SDS011;23991;52.430;10.586;2023-03-29T11:52:28;5.72;;;3.80;;
38182;SDS011;23991;52.430;10.586;2023-03-29T11:54:59;9.43;;;3.45;;
38182;SDS011;23991;52.430;10.586;2023-03-29T11:57:32;6.50;;;3.80;;
38182;SDS011;23991;52.430;10.586;2023-03-29T12:12:56;6.32;;;3.25;;
38182;SDS011;23991;52.430;10.586;2023-03-29T12:15:26;7.25;;;3.08;;
38182;SDS011;23991;52.430;10.586;2023-03-29T12:18:01;5.70;;;3.45;;
38182;SDS011;23991;52.430;10.586;2023-03-29T12:20:41;8.75;;;3.85;;
38182;SDS011;23991;52.430;10.586;2023-03-29T12:23:09;55.85;;;6.97;;
38182;SDS011;23991;52.430;10.586;2023-03-29T12:40:35;7.05;;;3.60;;
38182;SDS011;23991;52.430;10.586;2023-03-29T12:48:32;5.15;;;3.50;;
38182;SDS011;23991;52.430;10.586;2023-03-29T12:51:01;9.05;;;4.00;;
38182;SDS011;23991;52.430;10.586;2023-03-29T13:01:05;6.57;;;3.10;;
38182;SDS011;23991;52.430;10.586;2023-03-29T13:10:51;6.35;;;3.67;;
38182;SDS011;23991;52.430;10.586;2023-03-29T13:13:20;9.30;;;4.23;;
38182;SDS011;23991;52.430;10.586;2023-03-29T13:15:50;8.10;;;4.22;;
38182;SDS011;23991;52.430;10.586;2023-03-29T13:18:25;7.90;;;4.68;;
38182;SDS011;23991;52.430;10.586;2023-03-29T13:21:19;7.07;;;4.97;;
38182;SDS011;23991;52.430;10.586;2023-03-29T13:26:53;8.00;;;5.30;;
38182;SDS011;23991;52.430;10.586;2023-03-29T13:32:26;9.02;;;4.90;;
38182;SDS011;23991;52.430;10.586;2023-03-29T13:48:27;7.82;;;4.40;;
38182;SDS011;23991;52.430;10.586;2023-03-29T13:50:58;8.57;;;4.93;;
38182;SDS011;23991;52.430;10.586;2023-03-29T13:53:33;8.68;;;4.35;;
38182;SDS011;23991;52.430;10.586;2023-03-29T13:56:06;11.38;;;4.93;;
38182;SDS011;23991;52.430;10.586;2023-03-29T13:58:40;9.10;;;4.45;;
38182;SDS011;23991;52.430;10.586;2023-03-29T14:01:19;8.60;;;4.65;;
38182;SDS011;23991;52.430;10.586;2023-03-29T14:04:09;7.90;;;4.57;;
38182;SDS011;23991;52.430;10.586;2023-03-29T14:06:46;10.90;;;5.10;;
38182;SDS011;23991;52.430;10.586;2023-03-29T14:09:17;6.18;;;4.82;;
38182;SDS011;23991;52.430;10.586;2023-03-29T14:11:46;6.80;;;4.00;;
38182;SDS011;23991;52.430;10.586;2023-03-29T14:14:12;8.57;;;4.57;;
38182;SDS011;23991;52.430;10.586;2023-03-29T14:16:41;8.65;;;4.40;;
38182;SDS011;23991;52.430;10.586;2023-03-29T14:19:23;11.00;;;5.18;;
38182;SDS011;23991;52.430;10.586;2023-03-29T14:22:02;7.55;;;5.10;;
38182;SDS011;23991;52.430;10.586;2023-03-29T14:24:38;6.72;;;4.35;;
38182;SDS011;23991;52.430;10.586;2023-03-29T14:27:06;9.13;;;4.65;;
38182;SDS011;23991;52.430;10.586;2023-03-29T14:29:34;7.22;;;4.72;;
38182;SDS011;23991;52.430;10.586;2023-03-29T14:32:13;9.50;;;4.70;;
38182;SDS011;23991;52.430;10.586;2023-03-29T14:34:46;6.38;;;4.70;;
38182;SDS011;23991;52.430;10.586;2023-03-29T14:37:45;8.20;;;3.42;;
38182;SDS011;23991;52.430;10.586;2023-03-29T14:40:17;6.70;;;3.40;;
38182;SDS011;23991;52.430;10.586;2023-03-29T14:42:45;5.72;;;3.15;;
38182;SDS011;23991;52.430;10.586;2023-03-29T14:45:12;3.85;;;2.92;;
38182;SDS011;23991;52.430;10.586;2023-03-29T14:47:40;5.30;;;3.15;;
38182;SDS011;23991;52.430;10.586;2023-03-29T14:50:15;4.30;;;2.78;;
38182;SDS011;23991;52.430;10.586;2023-03-29T14:53:00;4.18;;;2.97;;
38182;SDS011;23991;52.430;10.586;2023-03-29T14:55:27;6.50;;;3.10;;
38182;SDS011;23991;52.430;10.586;2023-03-29T14:57:53;5.68;;;3.45;;
38182;SDS011;23991;52.430;10.586;2023-03-29T15:00:22;5.18;;;3.40;;
38182;SDS011;23991;52.430;10.586;2023-03-29T15:05:30;7.60;;;3.60;;
38182;SDS011;23991;52.430;10.586;2023-03-29T15:08:31;5.20;;;3.17;;
38182;SDS011;23991;52.430;10.586;2023-03-29T15:11:17;6.05;;;4.00;;
38182;SDS011;23991;52.430;10.586;2023-03-29T15:13:49;6.70;;;4.03;;
38182;SDS011;23991;52.430;10.586;2023-03-29T15:16:19;6.15;;;4.03;;
38182;SDS011;23991;52.430;10.586;2023-03-29T15:18:47;9.13;;;5.68;;
38182;SDS011;23991;52.430;10.586;2023-03-29T15:21:15;6.63;;;4.05;;
38182;SDS011;23991;52.430;10.586;2023-03-29T15:23:49;8.15;;;4.13;;
38182;SDS011;23991;52.430;10.586;2023-03-29T15:26:21;9.18;;;3.97;;
38182;SDS011;23991;52.430;10.586;2023-03-29T15:29:10;6.45;;;3.90;;
38182;SDS011;23991;52.430;10.586;2023-03-29T15:31:39;8.10;;;3.70;;
38182;SDS011;23991;52.430;10.586;2023-03-29T15:34:06;6.38;;;3.90;;
38182;SDS011;23991;52.430;10.586;2023-03-29T15:36:40;5.72;;;3.60;;
38182;SDS011;23991;52.430;10.586;2023-03-29T15:39:13;6.82;;;4.35;;
38182;SDS011;23991;52.430;10.586;2023-03-29T15:41:41;13.05;;;6.97;;
38182;SDS011;23991;52.430;10.586;2023-03-29T15:44:07;6.47;;;4.43;;
38182;SDS011;23991;52.430;10.586;2023-03-29T15:46:34;7.35;;;3.80;;
38182;SDS011;23991;52.430;10.586;2023-03-29T15:49:00;5.57;;;3.42;;
38182;SDS011;23991;52.430;10.586;2023-03-29T15:51:25;7.35;;;3.95;;
38182;SDS011;23991;52.430;10.586;2023-03-29T15:53:51;9.13;;;4.38;;
38182;SDS011;23991;52.430;10.586;2023-03-29T15:56:17;6.75;;;4.03;;
38182;SDS011;23991;52.430;10.586;2023-03-29T15:58:44;5.95;;;3.92;;
38182;SDS011;23991;52.430;10.586;2023-03-29T16:01:17;6.90;;;3.65;;
38182;SDS011;23991;52.430;10.586;2023-03-29T16:03:47;5.88;;;3.85;;
38182;SDS011;23991;52.430;10.586;2023-03-29T16:06:13;6.18;;;3.70;;
38182;SDS011;23991;52.430;10.586;2023-03-29T16:08:40;9.82;;;4.30;;
38182;SDS011;23991;52.430;10.586;2023-03-29T16:11:05;8.43;;;4.20;;
38182;SDS011;23991;52.430;10.586;2023-03-29T16:13:33;6.72;;;4.32;;
38182;SDS011;23991;52.430;10.586;2023-03-29T16:15:59;6.28;;;4.47;;
38182;SDS011;23991;52.430;10.586;2023-03-29T16:18:25;6.13;;;3.85;;
38182;SDS011;23991;52.430;10.586;2023-03-29T16:20:51;6.75;;;3.97;;
38182;SDS011;23991;52.430;10.586;2023-03-29T16:23:16;5.63;;;3.63;;
38182;SDS011;23991;52.430;10.586;2023-03-29T16:25:42;8.20;;;3.92;;
38182;SDS011;23991;52.430;10.586;2023-03-29T16:28:08;7.55;;;3.90;;
38182;SDS011;23991;52.430;10.586;2023-03-29T16:30:37;9.90;;;4.03;;
38182;SDS011;23991;52.430;10.586;2023-03-29T16:33:03;7.35;;;3.70;;
38182;SDS011;23991;52.430;10.586;2023-03-29T16:35:33;7.00;;;4.03;;
38182;SDS011;23991;52.430;10.586;2023-03-29T16:38:03;6.20;;;4.18;;
38182;SDS011;23991;52.430;10.586;2023-03-29T16:40:30;5.82;;;4.10;;
38182;SDS011;23991;52.430;10.586;2023-03-29T16:42:57;6.75;;;4.32;;
38182;SDS011;23991;52.430;10.586;2023-03-29T16:45:23;7.53;;;4.88;;
38182;SDS011;23991;52.430;10.586;2023-03-29T16:47:48;7.28;;;4.18;;
38182;SDS011;23991;52.430;10.586;2023-03-29T16:50:15;11.52;;;4.57;;
38182;SDS011;23991;52.430;10.586;2023-03-29T16:52:43;6.75;;;4.68;;
38182;SDS011;23991;52.430;10.586;2023-03-29T16:55:09;7.70;;;4.70;;
38182;SDS011;23991;52.430;10.586;2023-03-29T17:00:05;7.03;;;4.57;;
38182;SDS011;23991;52.430;10.586;2023-03-29T17:02:35;8.10;;;5.00;;
38182;SDS011;23991;52.430;10.586;2023-03-29T17:05:33;8.90;;;5.05;;
38182;SDS011;23991;52.430;10.586;2023-03-29T17:08:25;7.88;;;5.03;;
38182;SDS011;23991;52.430;10.586;2023-03-29T17:10:51;8.32;;;5.03;;
38182;SDS011;23991;52.430;10.586;2023-03-29T17:13:19;10.55;;;5.45;;
38182;SDS011;23991;52.430;10.586;2023-03-29T17:15:51;9.07;;;4.80;;
38182;SDS011;23991;52.430;10.586;2023-03-29T17:18:22;6.13;;;4.65;;
38182;SDS011;23991;52.430;10.586;2023-03-29T17:21:01;9.93;;;4.88;;
38182;SDS011;23991;52.430;10.586;2023-03-29T17:23:48;7.40;;;4.97;;
38182;SDS011;23991;52.430;10.586;2023-03-29T17:26:13;6.75;;;4.68;;
38182;SDS011;23991;52.430;10.586;2023-03-29T17:28:42;8.90;;;5.30;;
38182;SDS011;23991;52.430;10.586;2023-03-29T17:31:10;6.63;;;4.53;;
38182;SDS011;23991;52.430;10.586;2023-03-29T17:33:39;6.60;;;4.18;;
38182;SDS011;23991;52.430;10.586;2023-03-29T17:36:08;7.15;;;5.00;;
38182;SDS011;23991;52.430;10.586;2023-03-29T17:38:37;6.75;;;5.07;;